createdAt,value
2018-09-26T00:02:03.867Z,102659.97
2018-09-26T00:04:31.731Z,102666.63
2018-09-26T00:06:59.221Z,102663.64
2018-09-26T00:09:27.225Z,102657.13
2018-09-26T00:11:54.761Z,102654.11
2018-09-26T00:14:22.244Z,102652.63
2018-09-26T00:16:49.810Z,102640.07
2018-09-26T00:19:17.267Z,102633.59
2018-09-26T00:21:44.839Z,102635.44
2018-09-26T00:24:12.497Z,102633.39
2018-09-26T00:26:39.907Z,102640.72
2018-09-26T00:29:07.371Z,102639.98
2018-09-26T00:31:34.864Z,102640.92
2018-09-26T00:34:02.373Z,102630.54
2018-09-26T00:36:29.952Z,102626.64
2018-09-26T00:38:57.427Z,102637.66
2018-09-26T00:41:24.893Z,102630.84
2018-09-26T00:43:52.297Z,102628.75
2018-09-26T00:46:19.747Z,102628.25
2018-09-26T00:48:47.153Z,102634.13
2018-09-26T00:51:14.590Z,102635.78
2018-09-26T00:53:42.031Z,102640.45
2018-09-26T00:56:09.643Z,102634.67
2018-09-26T00:58:37.097Z,102633.66
2018-09-26T01:01:04.645Z,102630.51
2018-09-26T01:03:32.016Z,102623.99
2018-09-26T01:05:59.483Z,102619.73
2018-09-26T01:08:27.017Z,102619.83
2018-09-26T01:10:54.401Z,102626.05
2018-09-26T01:13:21.767Z,102629.63
2018-09-26T01:15:49.287Z,102626.75
2018-09-26T01:18:16.879Z,102628.49
2018-09-26T01:20:44.687Z,102637.81
2018-09-26T01:23:12.590Z,102629.56
2018-09-26T01:25:40.425Z,102632.42
2018-09-26T01:28:07.873Z,102636.28
2018-09-26T01:30:35.375Z,102635.91
2018-09-26T01:33:02.884Z,102636.84
2018-09-26T01:35:30.320Z,102634.23
2018-09-26T01:37:57.760Z,102630.40
2018-09-26T01:40:25.195Z,102642.62
2018-09-26T01:42:52.583Z,102635.33
2018-09-26T01:45:20.343Z,102630.70
2018-09-26T01:47:47.711Z,102630.88
2018-09-26T01:50:15.149Z,102638.73
2018-09-26T01:52:42.557Z,102638.73
2018-09-26T01:55:10.029Z,102644.06
2018-09-26T01:57:37.449Z,102640.61
2018-09-26T02:00:05.229Z,102636.37
2018-09-26T02:02:32.859Z,102625.56
2018-09-26T02:05:00.271Z,102621.35
2018-09-26T02:07:27.787Z,102614.06
2018-09-26T02:09:55.297Z,102609.45
2018-09-26T02:12:22.745Z,102612.22
2018-09-26T02:14:50.215Z,102609.63
2018-09-26T02:17:17.683Z,102610.53
2018-09-26T02:19:45.065Z,102604.46
2018-09-26T02:22:12.579Z,102607.08
2018-09-26T02:24:40.005Z,102602.69
2018-09-26T02:27:07.669Z,102591.70
2018-09-26T02:29:35.164Z,102594.44
2018-09-26T02:32:02.751Z,102593.25
2018-09-26T02:34:30.179Z,102589.01
2018-09-26T02:36:57.705Z,102583.84
2018-09-26T02:39:26.159Z,102580.81
2018-09-26T02:41:53.609Z,102567.30
2018-09-26T02:44:21.432Z,102572.59
2018-09-26T02:46:49.283Z,102574.77
2018-09-26T02:49:16.679Z,102568.64
2018-09-26T02:51:44.188Z,102552.95
2018-09-26T02:54:11.609Z,102556.41
2018-09-26T02:56:39.169Z,102561.30
2018-09-26T02:59:06.587Z,102568.67
2018-09-26T03:01:34.003Z,102570.38
2018-09-26T03:04:01.533Z,102554.70
2018-09-26T03:06:28.960Z,102551.67
2018-09-26T03:08:56.361Z,102549.47
2018-09-26T03:11:23.893Z,102544.70
2018-09-26T03:13:51.572Z,102548.75
2018-09-26T03:16:19.067Z,102547.97
2018-09-26T03:18:46.569Z,102535.30
2018-09-26T03:21:14.077Z,102532.28
2018-09-26T03:23:41.471Z,102534.02
2018-09-26T03:26:09.000Z,102536.55
2018-09-26T03:28:36.410Z,102540.91
2018-09-26T03:31:03.957Z,102545.08
2018-09-26T03:33:31.448Z,102551.12
2018-09-26T03:35:58.998Z,102555.82
2018-09-26T03:38:26.384Z,102547.09
2018-09-26T03:40:53.904Z,102543.58
2018-09-26T03:43:21.306Z,102540.12
2018-09-26T03:45:48.876Z,102537.67
2018-09-26T03:48:16.442Z,102541.19
2018-09-26T03:50:43.986Z,102540.84
2018-09-26T03:53:11.390Z,102545.23
2018-09-26T03:55:38.932Z,102537.01
2018-09-26T03:58:06.400Z,102535.23
2018-09-26T04:00:33.812Z,102541.37
2018-09-26T04:03:01.186Z,102537.45
2018-09-26T04:05:28.630Z,102528.79
2018-09-26T04:07:56.194Z,102526.27
2018-09-26T04:10:23.746Z,102526.30
2018-09-26T04:12:51.481Z,102528.82
2018-09-26T04:15:18.792Z,102533.06
2018-09-26T04:17:46.148Z,102539.94
2018-09-26T04:20:13.686Z,102549.00
2018-09-26T04:22:41.209Z,102537.11
2018-09-26T04:25:08.654Z,102529.14
2018-09-26T04:27:36.134Z,102527.36
2018-09-26T04:30:04.026Z,102531.66
2018-09-26T04:32:31.426Z,102525.62
2018-09-26T04:34:58.822Z,102526.98
2018-09-26T04:37:26.232Z,102516.48
2018-09-26T04:39:53.696Z,102515.58
2018-09-26T04:42:21.563Z,102527.31
2018-09-26T04:44:49.002Z,102527.16
2018-09-26T04:47:16.438Z,102537.12
2018-09-26T04:49:43.851Z,102534.84
2018-09-26T04:52:11.290Z,102536.98
2018-09-26T04:54:38.714Z,102551.02
2018-09-26T04:57:06.352Z,102555.03
2018-09-26T04:59:33.930Z,102556.84
2018-09-26T05:02:01.464Z,102551.14
2018-09-26T05:04:28.972Z,102545.50
2018-09-26T05:06:56.403Z,102546.00
2018-09-26T05:09:23.934Z,102543.76
2018-09-26T05:11:51.660Z,102543.29
2018-09-26T05:14:19.098Z,102545.50
2018-09-26T05:16:46.557Z,102543.79
2018-09-26T05:19:14.146Z,102538.16
2018-09-26T05:21:41.652Z,102538.93
2018-09-26T05:24:09.166Z,102555.06
2018-09-26T05:26:36.657Z,102544.00
2018-09-26T05:29:04.087Z,102543.73
2018-09-26T05:31:31.460Z,102542.52
2018-09-26T05:33:58.886Z,102542.52
2018-09-26T05:36:26.464Z,102555.05
2018-09-26T05:38:54.162Z,102569.20
2018-09-26T05:41:21.658Z,102565.37
2018-09-26T05:43:49.170Z,102554.14
2018-09-26T05:46:16.632Z,102540.62
2018-09-26T05:48:44.485Z,102552.01
2018-09-26T05:51:11.982Z,102559.35
2018-09-26T05:53:39.485Z,102566.73
2018-09-26T05:56:07.072Z,102562.94
2018-09-26T05:58:34.516Z,102559.59
2018-09-26T06:01:01.972Z,102560.53
2018-09-26T06:03:29.374Z,102564.27
2018-09-26T06:05:56.779Z,102561.61
2018-09-26T06:08:24.183Z,102566.15
2018-09-26T06:10:51.964Z,102567.41
2018-09-26T06:13:19.310Z,102568.34
2018-09-26T06:15:46.742Z,102564.31
2018-09-26T06:18:14.318Z,102549.04
2018-09-26T06:20:41.753Z,102535.38
2018-09-26T06:23:09.125Z,102534.04
2018-09-26T06:25:36.575Z,102535.55
2018-09-26T06:28:03.998Z,102529.30
2018-09-26T06:30:31.435Z,102540.08
2018-09-26T06:32:58.829Z,102545.92
2018-09-26T06:35:26.278Z,102532.40
2018-09-26T06:37:53.649Z,102532.28
2018-09-26T06:40:21.251Z,102527.78
2018-09-26T06:42:49.385Z,102523.22
2018-09-26T06:45:16.809Z,102518.86
2018-09-26T06:47:44.230Z,102514.96
2018-09-26T06:50:11.649Z,102523.69
2018-09-26T06:52:39.050Z,102533.24
2018-09-26T06:55:06.466Z,102539.34
2018-09-26T06:57:33.878Z,102554.48
2018-09-26T07:00:01.346Z,102564.94
2018-09-26T07:02:28.771Z,102567.50
2018-09-26T07:04:56.158Z,102564.31
2018-09-26T07:07:23.603Z,102550.95
2018-09-26T07:09:51.036Z,102548.24
2018-09-26T07:12:18.514Z,102561.19
2018-09-26T07:14:45.849Z,102548.16
2018-09-26T07:17:13.623Z,102547.95
2018-09-26T07:19:41.037Z,102564.38
2018-09-26T07:22:08.519Z,102575.73
2018-09-26T07:24:35.971Z,102567.17
2018-09-26T07:27:03.510Z,102563.80
2018-09-26T07:29:31.084Z,102573.36
2018-09-26T07:31:58.578Z,102580.81
2018-09-26T07:34:31.834Z,102579.88
2018-09-26T07:36:59.627Z,102583.21
2018-09-26T07:39:27.094Z,102571.95
2018-09-26T07:41:54.557Z,102565.08
2018-09-26T07:44:22.043Z,102564.94
2018-09-26T07:46:49.682Z,102567.30
2018-09-26T07:49:17.180Z,102557.45
2018-09-26T07:51:44.662Z,102562.70
2018-09-26T07:54:12.162Z,102565.59
2018-09-26T07:56:39.631Z,102559.17
2018-09-26T07:59:07.235Z,102544.80
2018-09-26T08:01:34.888Z,102546.33
2018-09-26T08:04:02.411Z,102536.05
2018-09-26T08:06:29.928Z,102544.78
2018-09-26T08:08:57.395Z,102547.41
2018-09-26T08:11:24.890Z,102551.65
2018-09-26T08:13:52.297Z,102565.71
2018-09-26T08:16:19.752Z,102563.22
2018-09-26T08:18:47.175Z,102557.73
2018-09-26T08:21:14.712Z,102560.34
2018-09-26T08:23:42.165Z,102562.89
2018-09-26T08:26:09.590Z,102548.09
2018-09-26T08:28:37.016Z,102549.61
2018-09-26T08:31:04.458Z,102549.36
2018-09-26T08:33:31.886Z,102544.20
2018-09-26T08:35:59.415Z,102543.64
2018-09-26T08:38:26.798Z,102554.45
2018-09-26T08:40:54.326Z,102548.58
2018-09-26T08:43:21.788Z,102542.66
2018-09-26T08:45:49.222Z,102548.32
2018-09-26T08:48:16.671Z,102543.02
2018-09-26T08:50:44.161Z,102546.08
2018-09-26T08:53:11.656Z,102550.28
2018-09-26T08:55:39.072Z,102548.49
2018-09-26T08:58:06.532Z,102550.98
2018-09-26T09:00:35.910Z,102551.09
2018-09-26T09:03:04.435Z,102546.36
2018-09-26T09:05:31.942Z,102548.86
2018-09-26T09:08:00.010Z,102554.53
2018-09-26T09:10:27.571Z,102542.91
2018-09-26T09:12:54.984Z,102530.61
2018-09-26T09:15:22.513Z,102529.80
2018-09-26T09:17:50.031Z,102536.89
2018-09-26T09:20:17.474Z,102541.66
2018-09-26T09:22:45.893Z,102534.49
2018-09-26T09:25:13.364Z,102535.66
2018-09-26T09:27:41.012Z,102529.42
2018-09-26T09:30:08.414Z,102526.17
2018-09-26T09:32:35.931Z,102526.56
2018-09-26T09:35:03.530Z,102521.98
2018-09-26T09:37:30.990Z,102523.66
2018-09-26T09:39:58.447Z,102518.96
2018-09-26T09:42:26.083Z,102519.28
2018-09-26T09:44:53.546Z,102514.56
2018-09-26T09:47:20.958Z,102507.09
2018-09-26T09:49:48.442Z,102507.91
2018-09-26T09:52:15.890Z,102509.94
2018-09-26T09:54:43.286Z,102501.74
2018-09-26T09:57:10.782Z,102501.61
2018-09-26T09:59:38.226Z,102497.50
2018-09-26T10:02:05.799Z,102494.84
2018-09-26T10:04:33.234Z,102486.16
2018-09-26T10:07:00.838Z,102490.67
2018-09-26T10:09:28.386Z,102492.90
2018-09-26T10:11:55.948Z,102489.62
2018-09-26T10:14:23.360Z,102482.97
2018-09-26T10:16:51.005Z,102476.25
2018-09-26T10:19:18.462Z,102478.61
2018-09-26T10:21:45.970Z,102482.67
2018-09-26T10:24:13.461Z,102484.04
2018-09-26T10:26:41.190Z,102483.77
2018-09-26T10:29:08.713Z,102480.98
2018-09-26T10:31:36.211Z,102472.05
2018-09-26T10:34:03.826Z,102478.58
2018-09-26T10:36:31.329Z,102477.28
2018-09-26T10:38:58.760Z,102477.16
2018-09-26T10:41:26.222Z,102479.83
2018-09-26T10:43:53.694Z,102473.77
2018-09-26T10:46:21.189Z,102471.69
2018-09-26T10:48:48.662Z,102461.98
2018-09-26T10:51:16.220Z,102461.47
2018-09-26T10:53:43.626Z,102461.91
2018-09-26T10:56:11.069Z,102462.73
2018-09-26T10:58:38.446Z,102458.90
2018-09-26T11:01:06.104Z,102462.59
2018-09-26T11:03:33.565Z,102456.59
2018-09-26T11:06:00.954Z,102450.73
2018-09-26T11:08:28.410Z,102456.36
2018-09-26T11:10:55.882Z,102437.00
2018-09-26T11:13:23.306Z,102442.94
2018-09-26T11:15:50.776Z,102446.77
2018-09-26T11:18:18.330Z,102440.08
2018-09-26T11:20:45.874Z,102438.98
2018-09-26T11:23:13.279Z,102436.78
2018-09-26T11:25:40.750Z,102430.48
2018-09-26T11:28:08.209Z,102427.06
2018-09-26T11:30:35.649Z,102435.14
2018-09-26T11:33:03.085Z,102432.21
2018-09-26T11:35:30.514Z,102434.61
2018-09-26T11:37:57.925Z,102431.35
2018-09-26T11:40:25.487Z,102430.06
2018-09-26T11:42:52.885Z,102419.13
2018-09-26T11:45:20.338Z,102421.17
2018-09-26T11:47:47.778Z,102416.00
2018-09-26T11:50:15.261Z,102406.05
2018-09-26T11:52:42.674Z,102403.20
2018-09-26T11:55:10.247Z,102399.81
2018-09-26T11:57:37.722Z,102400.52
2018-09-26T12:00:05.173Z,102400.54
2018-09-26T12:02:32.994Z,102389.78
2018-09-26T12:05:00.376Z,102397.20
2018-09-26T12:07:27.790Z,102396.26
2018-09-26T12:09:55.262Z,102395.13
2018-09-26T12:12:23.345Z,102385.97
2018-09-26T12:14:50.841Z,102383.03
2018-09-26T12:17:18.293Z,102378.23
2018-09-26T12:19:45.742Z,102379.78
2018-09-26T12:22:13.186Z,102377.37
2018-09-26T12:24:40.766Z,102376.14
2018-09-26T12:27:08.169Z,102376.13
2018-09-26T12:29:35.665Z,102374.52
2018-09-26T12:32:03.133Z,102366.71
2018-09-26T12:34:30.512Z,102362.94
2018-09-26T12:36:58.013Z,102358.78
2018-09-26T12:39:25.473Z,102360.81
2018-09-26T12:41:52.887Z,102364.56
2018-09-26T12:44:20.269Z,102362.46
2018-09-26T12:46:48.583Z,102356.44
2018-09-26T12:49:15.990Z,102348.59
2018-09-26T12:51:43.557Z,102346.77
2018-09-26T12:54:10.963Z,102343.53
2018-09-26T12:56:38.397Z,102350.80
2018-09-26T12:59:05.913Z,102345.77
2018-09-26T13:01:33.477Z,102339.70
2018-09-26T13:04:00.895Z,102334.62
2018-09-26T13:06:28.394Z,102330.63
2018-09-26T13:08:55.935Z,102331.67
2018-09-26T13:11:23.473Z,102323.55
2018-09-26T13:13:51.212Z,102323.76
2018-09-26T13:16:18.719Z,102317.44
2018-09-26T13:18:46.212Z,102314.13
2018-09-26T13:21:13.749Z,102312.33
2018-09-26T13:23:41.201Z,102309.50
2018-09-26T13:26:08.815Z,102307.15
2018-09-26T13:28:36.218Z,102303.26
2018-09-26T13:31:03.915Z,102305.23
2018-09-26T13:33:31.296Z,102301.33
2018-09-26T13:35:58.729Z,102299.79
2018-09-26T13:38:26.407Z,102296.73
2018-09-26T13:40:53.761Z,102300.16
2018-09-26T13:43:21.169Z,102293.56
2018-09-26T13:45:48.983Z,102295.50
2018-09-26T13:48:16.445Z,102297.78
2018-09-26T13:50:43.909Z,102297.69
2018-09-26T13:53:11.465Z,102298.94
2018-09-26T13:55:38.897Z,102291.27
2018-09-26T13:58:06.360Z,102291.03
2018-09-26T14:00:34.005Z,102291.13
2018-09-26T14:03:01.369Z,102289.72
2018-09-26T14:05:28.839Z,102284.59
2018-09-26T14:07:56.276Z,102281.45
2018-09-26T14:10:23.715Z,102278.22
2018-09-26T14:12:51.186Z,102285.06
2018-09-26T14:15:18.790Z,102280.09
2018-09-26T14:17:46.252Z,102288.16
2018-09-26T14:20:13.868Z,102278.05
2018-09-26T14:22:41.300Z,102287.09
2018-09-26T14:25:08.731Z,102283.97
2018-09-26T14:27:36.235Z,102283.35
2018-09-26T14:30:03.904Z,102286.52
2018-09-26T14:32:31.415Z,102279.80
2018-09-26T14:34:58.863Z,102282.31
2018-09-26T14:37:26.367Z,102278.29
2018-09-26T14:39:53.949Z,102275.27
2018-09-26T14:42:21.934Z,102277.86
2018-09-26T14:44:49.518Z,102273.41
2018-09-26T14:47:17.063Z,102262.99
2018-09-26T14:49:44.518Z,102257.50
2018-09-26T14:52:12.098Z,102257.29
2018-09-26T14:54:39.606Z,102254.09
2018-09-26T14:57:07.053Z,102252.20
2018-09-26T14:59:34.535Z,102249.47
2018-09-26T15:02:01.998Z,102235.25
2018-09-26T15:04:29.485Z,102231.14
2018-09-26T15:06:56.974Z,102227.90
2018-09-26T15:09:24.506Z,102224.09
2018-09-26T15:11:51.929Z,102221.55
2018-09-26T15:14:19.427Z,102229.74
2018-09-26T15:16:46.918Z,102228.88
2018-09-26T15:19:14.357Z,102222.86
2018-09-26T15:21:41.881Z,102222.17
2018-09-26T15:24:09.367Z,102223.78
2018-09-26T15:26:36.763Z,102217.19
2018-09-26T15:29:04.228Z,102212.79
2018-09-26T15:31:31.630Z,102208.20
2018-09-26T15:33:59.025Z,102206.95
2018-09-26T15:36:26.703Z,102202.63
2018-09-26T15:38:54.287Z,102202.98
2018-09-26T15:41:21.833Z,102204.82
2018-09-26T15:43:49.291Z,102204.30
2018-09-26T15:46:16.765Z,102202.81
2018-09-26T15:48:44.241Z,102204.19
2018-09-26T15:51:11.713Z,102203.95
2018-09-26T15:53:39.149Z,102206.08
2018-09-26T15:56:06.693Z,102203.20
2018-09-26T15:58:34.095Z,102201.69
2018-09-26T16:01:01.612Z,102205.48
2018-09-26T16:03:29.085Z,102197.15
2018-09-26T16:05:56.570Z,102195.95
2018-09-26T16:08:24.147Z,102190.06
2018-09-26T16:10:51.592Z,102186.29
2018-09-26T16:13:18.988Z,102187.72
2018-09-26T16:15:46.366Z,102186.23
2018-09-26T16:18:13.777Z,102188.70
2018-09-26T16:20:41.211Z,102185.72
2018-09-26T16:23:08.681Z,102181.81
2018-09-26T16:25:36.283Z,102181.81
2018-09-26T16:28:03.716Z,102184.86
2018-09-26T16:30:31.250Z,102182.53
2018-09-26T16:32:58.705Z,102180.59
2018-09-26T16:35:26.329Z,102181.16
2018-09-26T16:37:53.735Z,102181.55
2018-09-26T16:40:21.200Z,102179.22
2018-09-26T16:42:48.690Z,102192.47
2018-09-26T16:45:16.261Z,102186.78
2018-09-26T16:47:43.566Z,102191.20
2018-09-26T16:50:11.228Z,102194.38
2018-09-26T16:52:38.643Z,102186.54
2018-09-26T16:55:06.100Z,102185.78
2018-09-26T16:57:33.563Z,102191.14
2018-09-26T17:00:01.053Z,102186.13
2018-09-26T17:02:28.546Z,102189.70
2018-09-26T17:04:56.050Z,102192.17
2018-09-26T17:07:23.604Z,102194.38
2018-09-26T17:09:51.062Z,102206.09
2018-09-26T17:12:18.541Z,102205.08
2018-09-26T17:14:46.006Z,102200.27
2018-09-26T17:17:13.428Z,102199.35
2018-09-26T17:19:40.875Z,102201.03
2018-09-26T17:22:08.353Z,102206.61
2018-09-26T17:24:35.742Z,102202.33
2018-09-26T17:27:03.223Z,102206.85
2018-09-26T17:29:30.611Z,102210.20
2018-09-26T17:31:58.060Z,102205.09
2018-09-26T17:34:25.696Z,102206.28
2018-09-26T17:36:53.441Z,102205.43
2018-09-26T17:39:20.938Z,102204.98
2018-09-26T17:41:48.413Z,102207.64
2018-09-26T17:44:15.914Z,102216.34
2018-09-26T17:46:43.401Z,102218.33
2018-09-26T17:49:11.168Z,102214.94
2018-09-26T17:51:38.747Z,102219.77
2018-09-26T17:54:06.250Z,102227.01
2018-09-26T17:56:33.753Z,102229.16
2018-09-26T17:59:01.308Z,102229.93
2018-09-26T18:01:28.979Z,102228.69
2018-09-26T18:03:56.401Z,102232.28
2018-09-26T18:06:23.875Z,102229.51
2018-09-26T18:08:51.373Z,102233.22
2018-09-26T18:11:18.885Z,102235.19
2018-09-26T18:13:46.313Z,102233.58
2018-09-26T18:16:13.991Z,102236.50
2018-09-26T18:18:41.537Z,102241.00
2018-09-26T18:21:08.991Z,102238.63
2018-09-26T18:23:36.445Z,102237.11
2018-09-26T18:26:04.064Z,102237.24
2018-09-26T18:28:32.201Z,102232.42
2018-09-26T18:31:01.130Z,102240.09
2018-09-26T18:33:30.539Z,102237.98
2018-09-26T18:35:58.840Z,102242.86
2018-09-26T18:38:28.237Z,102245.77
2018-09-26T18:40:55.872Z,102243.46
2018-09-26T18:43:23.448Z,102241.88
2018-09-26T18:45:51.202Z,102246.94
2018-09-26T18:48:19.816Z,102241.77
2018-09-26T18:50:48.456Z,102248.30
2018-09-26T18:53:16.950Z,102249.20
2018-09-26T18:55:44.575Z,102252.26
2018-09-26T18:58:12.077Z,102249.91
2018-09-26T19:00:39.591Z,102257.37
2018-09-26T19:03:07.197Z,102252.90
2018-09-26T19:05:34.712Z,102256.66
2018-09-26T19:08:02.163Z,102258.30
2018-09-26T19:10:29.798Z,102243.94
2018-09-26T19:12:57.394Z,102245.92
2018-09-26T19:15:24.903Z,102244.55
2018-09-26T19:17:52.346Z,102245.05
2018-09-26T19:20:19.815Z,102248.94
2018-09-26T19:22:47.292Z,102245.20
2018-09-26T19:25:14.866Z,102241.92
2018-09-26T19:27:42.482Z,102245.02
2018-09-26T19:30:10.151Z,102253.36
2018-09-26T19:32:37.617Z,102252.05
2018-09-26T19:35:05.175Z,102256.17
2018-09-26T19:37:32.721Z,102249.96
2018-09-26T19:40:00.241Z,102248.02
2018-09-26T19:42:27.675Z,102244.09
2018-09-26T19:44:55.151Z,102250.76
2018-09-26T19:47:22.699Z,102238.96
2018-09-26T19:49:50.128Z,102242.98
2018-09-26T19:52:17.678Z,102249.05
2018-09-26T19:54:45.116Z,102246.97
2018-09-26T19:57:13.198Z,102248.81
2018-09-26T19:59:40.872Z,102252.77
2018-09-26T20:02:08.607Z,102256.81
2018-09-26T20:04:36.354Z,102250.91
2018-09-26T20:07:03.855Z,102257.20
2018-09-26T20:09:31.503Z,102251.23
2018-09-26T20:11:58.955Z,102251.53
2018-09-26T20:14:26.443Z,102250.45
2018-09-26T20:16:54.016Z,102248.05
2018-09-26T20:19:21.437Z,102249.98
2018-09-26T20:21:49.080Z,102254.94
2018-09-26T20:24:16.506Z,102256.80
2018-09-26T20:26:44.058Z,102251.53
2018-09-26T20:29:11.492Z,102259.42
2018-09-26T20:31:38.927Z,102258.78
2018-09-26T20:34:06.436Z,102255.12
2018-09-26T20:36:33.896Z,102253.11
2018-09-26T20:39:01.398Z,102254.14
2018-09-26T20:41:28.884Z,102250.70
2018-09-26T20:43:56.395Z,102252.28
2018-09-26T20:46:23.862Z,102247.56
2018-09-26T20:48:51.674Z,102251.73
2018-09-26T20:51:19.978Z,102252.73
2018-09-26T20:53:47.426Z,102246.98
2018-09-26T20:56:14.866Z,102243.86
2018-09-26T20:58:42.298Z,102252.05
2018-09-26T21:01:09.738Z,102246.84
2018-09-26T21:03:37.146Z,102253.52
2018-09-26T21:06:04.630Z,102258.78
2018-09-26T21:08:32.040Z,102255.73
2018-09-26T21:10:59.790Z,102252.33
2018-09-26T21:13:28.047Z,102243.37
2018-09-26T21:15:55.885Z,102247.71
2018-09-26T21:18:23.270Z,102253.41
2018-09-26T21:20:50.831Z,102255.55
2018-09-26T21:23:18.276Z,102261.09
2018-09-26T21:25:45.704Z,102265.09
2018-09-26T21:28:13.322Z,102267.28
2018-09-26T21:30:40.865Z,102262.42
2018-09-26T21:33:08.559Z,102262.91
2018-09-26T21:35:36.113Z,102261.09
2018-09-26T21:38:03.545Z,102264.17
2018-09-26T21:40:31.120Z,102268.00
2018-09-26T21:42:58.673Z,102265.42
2018-09-26T21:45:26.194Z,102262.69
2018-09-26T21:47:53.707Z,102264.27
2018-09-26T21:50:21.177Z,102266.25
2018-09-26T21:52:48.759Z,102269.59
2018-09-26T21:55:16.326Z,102261.80
2018-09-26T21:57:43.742Z,102260.21
2018-09-26T22:00:11.224Z,102256.92
2018-09-26T22:02:38.678Z,102257.67
2018-09-26T22:05:06.327Z,102255.25
2018-09-26T22:07:33.936Z,102260.13
2018-09-26T22:10:01.398Z,102251.52
2018-09-26T22:12:28.870Z,102254.20
2018-09-26T22:14:56.400Z,102252.12
2018-09-26T22:17:23.805Z,102252.62
2018-09-26T22:19:51.393Z,102255.25
2018-09-26T22:22:19.001Z,102256.66
2018-09-26T22:24:46.421Z,102256.45
2018-09-26T22:27:13.892Z,102256.57
2018-09-26T22:29:41.362Z,102263.14
2018-09-26T22:32:08.788Z,102260.13
2018-09-26T22:34:36.206Z,102261.29
2018-09-26T22:37:03.703Z,102262.61
2018-09-26T22:39:31.233Z,102260.42
2018-09-26T22:41:58.617Z,102260.24
2018-09-26T22:44:26.082Z,102262.72
2018-09-26T22:46:53.487Z,102267.86
2018-09-26T22:49:20.945Z,102265.11
2018-09-26T22:51:48.581Z,102267.62
2018-09-26T22:54:16.035Z,102271.23
2018-09-26T22:56:43.461Z,102274.94
2018-09-26T22:59:11.367Z,102279.14
2018-09-26T23:01:38.797Z,102279.78
2018-09-26T23:04:06.539Z,102276.38
2018-09-26T23:06:33.998Z,102273.08
2018-09-26T23:09:01.424Z,102271.97
2018-09-26T23:11:28.987Z,102271.97
2018-09-26T23:13:56.423Z,102268.80
2018-09-26T23:16:23.857Z,102274.06
2018-09-26T23:18:51.371Z,102266.33
2018-09-26T23:21:18.785Z,102263.81
2018-09-26T23:23:46.181Z,102265.80
2018-09-26T23:26:13.630Z,102259.43
2018-09-26T23:28:41.127Z,102261.33
2018-09-26T23:31:08.577Z,102257.98
2018-09-26T23:33:36.063Z,102263.82
2018-09-26T23:36:03.549Z,102257.89
2018-09-26T23:38:30.963Z,102261.94
2018-09-26T23:40:58.500Z,102261.89
2018-09-26T23:43:26.061Z,102264.85
2018-09-26T23:45:53.593Z,102258.88
2018-09-26T23:48:21.091Z,102260.13
2018-09-26T23:50:48.516Z,102251.13
2018-09-26T23:53:15.961Z,102248.95
2018-09-26T23:55:43.377Z,102246.33
2018-09-26T23:58:10.887Z,102240.88
